Time;durP1;ratioP1;P1;durP2;ratioP2;P2;SDS_P1;SDS_P2;PMS_P1;PMS_P2;Temp;Humidity;BMP_temperature;BMP_pressure;BME280_temperature;BME280_humidity;BME280_pressure;Samples;Min_cycle;Max_cycle;Signal;HPM_P1;HPM_P2
2021/01/01 12:37:06;;;;;;;23.63;21.05;;;;;;;;;;10633609;27;20084;-89
2021/01/01 17:55:11;;;;;;;12.20;11.00;;;;;;;;;;10632718;27;20035;-89
2021/01/01 18:00:20;;;;;;;14.57;13.07;;;;;;;;;;10593328;28;20058;-89
2021/01/01 18:05:37;;;;;;;15.07;13.60;;;;;;;;;;10596426;28;20619;-89
2021/01/01 18:10:57;;;;;;;12.90;11.70;;;;;;;;;;10581132;28;20268;-89
2021/01/01 18:15:59;;;;;;;13.57;12.38;;;;;;;;;;10570364;28;20047;-88
2021/01/01 18:21:00;;;;;;;13.45;12.20;;;;;;;;;;10576620;28;20032;-88
2021/01/01 18:26:04;;;;;;;13.55;12.15;;;;;;;;;;10592237;28;20398;-89
2021/01/01 18:31:09;;;;;;;13.32;12.02;;;;;;;;;;10573329;28;20120;-88
2021/01/01 18:36:17;;;;;;;15.45;13.85;;;;;;;;;;10571982;28;20039;-89
2021/01/01 18:41:19;;;;;;;14.77;13.38;;;;;;;;;;10574474;28;20146;-87
2021/01/01 18:46:21;;;;;;;12.82;11.63;;;;;;;;;;10576929;28;20054;-87
2021/01/01 18:51:22;;;;;;;11.88;10.73;;;;;;;;;;10577056;28;20042;-89
2021/01/01 18:56:33;;;;;;;12.80;11.63;;;;;;;;;;10577018;28;20042;-87
2021/01/01 19:01:44;;;;;;;12.93;11.70;;;;;;;;;;10578633;28;20066;-87
2021/01/01 19:07:03;;;;;;;16.33;14.82;;;;;;;;;;10582910;28;20070;-87
2021/01/01 19:12:04;;;;;;;22.33;19.67;;;;;;;;;;10579478;28;20043;-87
2021/01/01 19:17:15;;;;;;;13.13;11.80;;;;;;;;;;10574254;28;20042;-88
2021/01/01 19:22:19;;;;;;;16.63;15.02;;;;;;;;;;10591762;28;20028;-89
2021/01/01 19:27:41;;;;;;;13.75;12.45;;;;;;;;;;10614901;27;20085;-88
2021/01/01 19:32:51;;;;;;;16.50;14.90;;;;;;;;;;10598623;27;20046;-85
2021/01/01 19:38:11;;;;;;;15.07;13.57;;;;;;;;;;10593226;28;20069;-89
2021/01/01 19:43:30;;;;;;;12.98;11.77;;;;;;;;;;10595808;28;20081;-89
2021/01/01 19:48:31;;;;;;;;;;;;;;;;;;10585175;28;20095;-88
2021/01/01 19:53:42;;;;;;;15.10;13.65;;;;;;;;;;10597191;28;19903;-88
2021/01/01 19:58:56;;;;;;;13.25;12.05;;;;;;;;;;10586898;28;20103;-88
2021/01/01 20:04:08;;;;;;;10.93;9.75;;;;;;;;;;10597526;28;20549;-88
2021/01/01 20:09:15;;;;;;;13.20;12.00;;;;;;;;;;10595535;28;20104;-89
2021/01/01 20:14:17;;;;;;;11.13;10.13;;;;;;;;;;10584644;28;20070;-88
2021/01/01 20:19:18;;;;;;;11.90;10.80;;;;;;;;;;10583115;28;20107;-89
2021/01/01 20:24:20;;;;;;;14.32;13.00;;;;;;;;;;10578534;28;20038;-89
2021/01/01 20:29:24;;;;;;;10.80;9.68;;;;;;;;;;10579025;28;20037;-90
2021/01/01 20:34:30;;;;;;;14.38;12.98;;;;;;;;;;10575761;28;20032;-89
2021/01/01 20:39:34;;;;;;;13.02;11.82;;;;;;;;;;10577271;28;20512;-88
2021/01/01 20:44:54;;;;;;;13.32;12.13;;;;;;;;;;10579555;28;20492;-89
2021/01/01 20:50:19;;;;;;;;;;;;;;;;;;10580770;28;20093;-90
2021/01/01 20:55:37;;;;;;;14.20;12.90;;;;;;;;;;10598466;28;19940;-89
2021/01/01 21:00:40;;;;;;;13.82;12.52;;;;;;;;;;10579851;28;20036;-89
2021/01/01 21:05:41;;;;;;;10.65;9.65;;;;;;;;;;10579139;28;20031;-89
2021/01/01 21:10:55;;;;;;;11.18;10.07;;;;;;;;;;10581854;28;20042;-89
2021/01/01 21:16:10;;;;;;;12.80;11.60;;;;;;;;;;10622015;27;20077;-88
2021/01/01 21:21:35;;;;;;;10.35;9.38;;;;;;;;;;10609092;28;20404;-88
2021/01/01 21:27:04;;;;;;;12.65;11.40;;;;;;;;;;10598501;28;20054;-90
2021/01/01 21:32:08;;;;;;;13.18;11.88;;;;;;;;;;10610323;28;20046;-90
2021/01/01 21:37:15;;;;;;;18.05;16.35;;;;;;;;;;10612706;28;20049;-89
2021/01/01 21:42:35;;;;;;;11.82;10.77;;;;;;;;;;10603678;28;20039;-89
2021/01/01 21:47:55;;;;;;;17.92;16.13;;;;;;;;;;10595693;28;20047;-89
2021/01/01 21:52:56;;;;;;;16.13;14.57;;;;;;;;;;10596348;28;20432;-90
2021/01/01 21:57:57;;;;;;;15.13;13.63;;;;;;;;;;10611062;28;20039;-89
2021/01/01 22:03:01;;;;;;;11.15;10.15;;;;;;;;;;10601956;28;20027;-89
2021/01/01 22:08:03;;;;;;;12.15;11.05;;;;;;;;;;10592066;28;20036;-90
2021/01/01 22:13:04;;;;;;;12.13;10.93;;;;;;;;;;10587855;28;20051;-90
2021/01/01 22:18:05;;;;;;;12.82;11.63;;;;;;;;;;10590098;28;20036;-88
2021/01/01 22:23:06;;;;;;;12.48;11.38;;;;;;;;;;10590421;28;20455;-90
2021/01/01 22:28:07;;;;;;;15.05;13.65;;;;;;;;;;10589057;28;20061;-89
2021/01/01 22:33:09;;;;;;;14.00;12.70;;;;;;;;;;10588500;28;20055;-90
2021/01/01 22:38:25;;;;;;;17.55;15.95;;;;;;;;;;10587546;28;20028;-90
2021/01/01 22:43:26;;;;;;;13.38;12.18;;;;;;;;;;10605242;28;20028;-90
2021/01/01 22:48:27;;;;;;;12.65;11.55;;;;;;;;;;10585957;28;20036;-90
2021/01/01 22:53:28;;;;;;;17.20;15.60;;;;;;;;;;10588136;28;20043;-91
2021/01/01 22:58:30;;;;;;;15.00;13.57;;;;;;;;;;10587318;28;20058;-90
2021/01/01 23:03:31;;;;;;;16.63;15.13;;;;;;;;;;10586101;28;20054;-91
2021/01/01 23:08:33;;;;;;;14.57;13.27;;;;;;;;;;10586261;28;20413;-91
2021/01/01 23:13:37;;;;;;;11.60;10.60;;;;;;;;;;10583258;28;20103;-89
2021/01/01 23:18:50;;;;;;;10.60;9.65;;;;;;;;;;10587602;28;20040;-90
2021/01/01 23:23:53;;;;;;;11.50;10.40;;;;;;;;;;10590332;28;20023;-89
2021/01/01 23:28:58;;;;;;;14.30;12.93;;;;;;;;;;10603378;27;20020;-88
2021/01/01 23:34:09;;;;;;;10.75;9.75;;;;;;;;;;10614928;27;20028;-90
2021/01/01 23:39:13;;;;;;;12.63;11.52;;;;;;;;;;10608031;27;20077;-90
2021/01/01 23:44:33;;;;;;;12.30;11.20;;;;;;;;;;10591215;28;20042;-90
2021/01/01 23:49:34;;;;;;;14.85;13.40;;;;;;;;;;10589823;28;20032;-90
2021/01/01 23:54:38;;;;;;;17.50;15.88;;;;;;;;;;10591356;28;20055;-90
2021/01/01 23:59:44;;;;;;;12.57;11.38;;;;;;;;;;10590908;28;20040;-90
